Terminal Aerodrome Forecast
Issued by NWS Jackson, KY

Home | Current Version | Previous Version | Text Only | Print | Product List | Glossary On
Versions: 1 2 3 4 5 6 7 8 9 10 11 12 13 14 15 16 17 18 19 20 21 22 23
000
FTUS43 KJKL 242328
TAFJKL
TAF
KJKL 242328Z 2500/2524 VRB03KT P6SM BKN100
     FM250800 VRB03KT P6SM VCSH SCT040 OVC060
     FM251100 VRB03KT 5SM -SHRA BR OVC040
     FM251500 VRB05KT 2SM SHRA BR VCTS SCT007 OVC025CB
     FM251800 16007KT P6SM VCTS SCT020 BKN030CB=

USA.gov is the U.S. government's official web portal to all federal, state and local government web resources and services.